createdAt,value
2022-08-24T00:00:53.036Z,1.60
2022-08-24T00:03:34.835Z,1.23
2022-08-24T00:06:07.249Z,1.60
2022-08-24T00:08:38.469Z,2.08
2022-08-24T00:11:08.196Z,1.15
2022-08-24T00:13:39.454Z,1.15
2022-08-24T00:16:14.005Z,1.15
2022-08-24T00:18:43.051Z,1.05
2022-08-24T00:21:12.834Z,1.00
2022-08-24T00:23:41.809Z,1.27
2022-08-24T00:26:11.127Z,1.35
2022-08-24T00:28:39.670Z,0.82
2022-08-24T00:31:13.813Z,1.00
2022-08-24T00:33:44.225Z,1.20
2022-08-24T00:36:13.128Z,1.10
2022-08-24T00:38:48.741Z,1.00
2022-08-24T00:41:17.457Z,0.90
2022-08-24T00:43:58.211Z,0.77
2022-08-24T00:46:39.189Z,1.20
2022-08-24T00:49:22.647Z,1.17
2022-08-24T00:51:55.657Z,0.80
2022-08-24T00:54:27.951Z,1.23
2022-08-24T00:57:00.153Z,1.40
2022-08-24T00:59:33.717Z,1.10
2022-08-24T01:02:15.225Z,1.00
2022-08-24T01:04:49.134Z,1.00
2022-08-24T01:07:20.904Z,1.25
2022-08-24T01:09:49.709Z,1.20
2022-08-24T01:12:19.643Z,1.20
2022-08-24T01:14:48.386Z,1.23
2022-08-24T01:17:39.132Z,1.40
2022-08-24T01:20:09.977Z,1.33
2022-08-24T01:22:49.198Z,0.98
2022-08-24T01:25:18.897Z,1.45
2022-08-24T01:27:47.894Z,1.27
2022-08-24T01:30:18.410Z,1.50
2022-08-24T01:33:09.737Z,1.40
2022-08-24T01:35:44.999Z,1.38
2022-08-24T01:38:15.481Z,1.25
2022-08-24T01:40:53.743Z,1.70
2022-08-24T01:43:24.360Z,2.27
2022-08-24T01:45:53.969Z,1.67
2022-08-24T01:48:23.090Z,1.30
2022-08-24T01:50:53.649Z,1.25
2022-08-24T01:53:23.723Z,1.90
2022-08-24T01:55:53.045Z,1.10
2022-08-24T01:58:22.165Z,1.17
2022-08-24T02:00:51.562Z,1.40
2022-08-24T02:03:29.482Z,1.58
2022-08-24T02:06:01.183Z,1.90
2022-08-24T02:08:36.185Z,1.30
2022-08-24T02:11:07.445Z,1.67
2022-08-24T02:13:39.048Z,1.23
2022-08-24T02:16:09.777Z,1.35
2022-08-24T02:18:41.153Z,1.40
2022-08-24T02:21:15.061Z,1.13
2022-08-24T02:23:43.739Z,1.63
2022-08-24T02:26:19.277Z,1.50
2022-08-24T02:28:49.073Z,1.58
2022-08-24T02:31:19.185Z,1.60
2022-08-24T02:33:48.700Z,1.10
2022-08-24T02:36:25.481Z,1.02
2022-08-24T02:38:58.456Z,1.10
2022-08-24T02:41:30.028Z,1.17
2022-08-24T02:43:59.883Z,1.50
2022-08-24T02:46:31.066Z,1.92
2022-08-24T02:49:11.808Z,2.13
2022-08-24T02:51:45.647Z,1.33
2022-08-24T02:54:21.116Z,1.20
2022-08-24T02:56:52.671Z,1.50
2022-08-24T02:59:22.342Z,1.15
2022-08-24T03:01:51.707Z,1.70
2022-08-24T03:04:22.069Z,1.33
2022-08-24T03:06:50.712Z,1.40
2022-08-24T03:09:19.473Z,1.05
2022-08-24T03:11:48.785Z,1.30
2022-08-24T03:14:19.150Z,1.48
2022-08-24T03:16:49.116Z,1.70
2022-08-24T03:19:20.331Z,1.15
2022-08-24T03:21:53.492Z,1.55
2022-08-24T03:24:23.395Z,1.40
2022-08-24T03:26:52.325Z,1.20
2022-08-24T03:29:21.212Z,1.63
2022-08-24T03:31:54.040Z,1.83
2022-08-24T03:34:24.290Z,1.70
2022-08-24T03:36:52.879Z,1.88
2022-08-24T03:39:23.283Z,1.58
2022-08-24T03:41:58.037Z,1.98
2022-08-24T03:44:30.672Z,1.10
2022-08-24T03:47:00.122Z,1.67
2022-08-24T03:49:30.710Z,2.15
2022-08-24T03:52:01.060Z,1.98
2022-08-24T03:54:31.200Z,1.50
2022-08-24T03:56:59.901Z,1.50
2022-08-24T03:59:31.635Z,1.85
2022-08-24T04:02:01.216Z,1.50
2022-08-24T04:04:32.590Z,1.52
2022-08-24T04:07:01.182Z,1.70
2022-08-24T04:09:33.693Z,1.73
2022-08-24T04:12:02.244Z,2.00
2022-08-24T04:14:32.387Z,1.85
2022-08-24T04:17:06.861Z,1.58
2022-08-24T04:19:57.296Z,1.77
2022-08-24T04:22:31.284Z,1.35
2022-08-24T04:24:59.897Z,1.92
2022-08-24T04:27:31.110Z,1.83
2022-08-24T04:30:00.284Z,1.20
2022-08-24T04:32:40.038Z,1.70
2022-08-24T04:35:11.106Z,1.00
2022-08-24T04:37:43.515Z,1.73
2022-08-24T04:40:13.704Z,1.15
2022-08-24T04:42:49.086Z,1.70
2022-08-24T04:45:18.367Z,1.60
2022-08-24T04:47:49.555Z,1.17
2022-08-24T04:50:21.891Z,1.50
2022-08-24T04:52:55.064Z,1.67
2022-08-24T04:55:24.089Z,1.80
2022-08-24T04:57:53.241Z,2.20
2022-08-24T05:00:23.369Z,2.25
2022-08-24T05:03:11.490Z,1.55
2022-08-24T05:05:42.899Z,1.63
2022-08-24T05:08:14.267Z,1.92
2022-08-24T05:10:46.377Z,1.90
2022-08-24T05:13:16.252Z,1.67
2022-08-24T05:15:48.400Z,2.20
2022-08-24T05:18:18.447Z,1.50
2022-08-24T05:20:49.497Z,1.48
2022-08-24T05:23:19.729Z,1.80
2022-08-24T05:25:48.771Z,1.83
2022-08-24T05:28:19.239Z,1.70
2022-08-24T05:30:51.160Z,1.85
2022-08-24T05:33:24.020Z,1.77
2022-08-24T05:35:54.665Z,1.77
2022-08-24T05:38:24.968Z,1.30
2022-08-24T05:40:53.573Z,1.55
2022-08-24T05:45:57.155Z,2.10
2022-08-24T05:48:27.242Z,1.67
2022-08-24T05:51:21.044Z,2.58
2022-08-24T05:54:00.708Z,2.38
2022-08-24T05:56:38.975Z,2.33
2022-08-24T05:59:08.836Z,2.17
2022-08-24T06:01:43.327Z,2.50
2022-08-24T06:04:14.048Z,2.25
2022-08-24T06:06:45.137Z,2.70
2022-08-24T06:09:18.807Z,2.22
2022-08-24T06:11:47.579Z,2.83
2022-08-24T06:14:23.891Z,2.53
2022-08-24T06:16:59.184Z,2.60
2022-08-24T06:19:30.151Z,2.50
2022-08-24T06:22:00.370Z,2.30
2022-08-24T06:24:54.591Z,2.95
2022-08-24T06:27:23.951Z,2.42
2022-08-24T06:29:57.996Z,3.20
2022-08-24T06:33:00.015Z,2.50
2022-08-24T06:35:35.440Z,2.17
2022-08-24T06:38:06.820Z,2.17
2022-08-24T06:40:40.136Z,1.95
2022-08-24T06:43:11.032Z,2.55
2022-08-24T06:45:49.947Z,2.17
2022-08-24T06:48:20.816Z,2.30
2022-08-24T06:50:49.707Z,2.00
2022-08-24T06:53:19.253Z,2.03
2022-08-24T06:55:55.657Z,1.98
2022-08-24T06:58:25.194Z,2.08
2022-08-24T07:00:55.129Z,1.90
2022-08-24T07:03:32.706Z,2.40
2022-08-24T07:06:21.900Z,2.03
2022-08-24T07:08:52.159Z,1.90
2022-08-24T07:11:21.961Z,2.03
2022-08-24T07:13:51.449Z,2.15
2022-08-24T07:16:21.417Z,2.95
2022-08-24T07:18:57.938Z,2.30
2022-08-24T07:21:32.321Z,2.17
2022-08-24T07:24:03.393Z,3.90
2022-08-24T07:26:35.912Z,2.78
2022-08-24T07:29:07.133Z,2.47
2022-08-24T07:31:48.586Z,2.38
2022-08-24T07:34:38.227Z,1.70
2022-08-24T07:37:08.461Z,1.77
2022-08-24T07:39:44.533Z,1.90
2022-08-24T07:42:20.851Z,1.40
2022-08-24T07:44:52.114Z,2.30
2022-08-24T07:47:37.517Z,1.65
2022-08-24T07:50:13.554Z,1.95
2022-08-24T07:52:51.656Z,1.73
2022-08-24T07:55:20.773Z,1.80
2022-08-24T07:57:50.187Z,2.00
2022-08-24T08:00:20.600Z,1.80
2022-08-24T08:03:17.739Z,1.55
2022-08-24T08:08:21.160Z,1.60
2022-08-24T08:10:51.144Z,1.92
2022-08-24T08:13:22.233Z,1.90
2022-08-24T08:15:56.734Z,1.52
2022-08-24T08:18:29.669Z,1.95
2022-08-24T08:21:01.516Z,2.15
2022-08-24T08:23:50.385Z,1.80
2022-08-24T08:26:27.522Z,1.98
2022-08-24T08:29:08.110Z,1.73
2022-08-24T08:31:39.241Z,2.20
2022-08-24T08:34:08.413Z,1.70
2022-08-24T08:36:40.648Z,1.75
2022-08-24T08:39:13.116Z,1.73
2022-08-24T08:42:01.088Z,1.63
2022-08-24T08:44:52.306Z,1.70
2022-08-24T08:47:43.722Z,1.65
2022-08-24T08:50:27.143Z,1.95
2022-08-24T08:53:08.401Z,1.70
2022-08-24T08:55:47.026Z,1.50
2022-08-24T08:58:35.207Z,1.45
2022-08-24T09:01:04.754Z,1.85
2022-08-24T09:03:45.580Z,1.10
2022-08-24T09:07:22.208Z,1.40
2022-08-24T09:10:23.853Z,1.88
2022-08-24T09:13:12.917Z,1.15
2022-08-24T09:15:55.944Z,1.20
2022-08-24T09:18:44.934Z,1.35
2022-08-24T09:21:33.584Z,1.50
2022-08-24T09:24:07.381Z,1.38
2022-08-24T09:26:59.105Z,1.00
2022-08-24T09:29:44.898Z,0.90
2022-08-24T09:32:34.282Z,0.93
2022-08-24T09:35:10.008Z,1.85
2022-08-24T09:37:44.684Z,1.45
2022-08-24T09:40:22.913Z,1.20
2022-08-24T09:42:56.816Z,1.00
2022-08-24T09:45:33.838Z,1.20
2022-08-24T09:48:05.058Z,1.23
2022-08-24T09:50:51.942Z,0.95
2022-08-24T09:53:19.837Z,1.33
2022-08-24T09:55:58.180Z,0.85
2022-08-24T09:58:38.672Z,1.00
2022-08-24T10:01:06.628Z,1.10
2022-08-24T10:03:56.811Z,1.75
2022-08-24T10:06:29.520Z,0.77
2022-08-24T10:09:00.600Z,0.83
2022-08-24T10:11:37.670Z,1.00
2022-08-24T10:14:08.931Z,0.80
2022-08-24T10:16:52.101Z,0.73
2022-08-24T10:19:20.422Z,0.88
2022-08-24T10:21:48.458Z,0.70
2022-08-24T10:24:16.572Z,0.73
2022-08-24T10:27:07.482Z,0.80
2022-08-24T10:29:44.672Z,1.30
2022-08-24T10:32:22.433Z,0.85
2022-08-24T10:35:01.709Z,1.02
2022-08-24T10:37:48.799Z,1.40
2022-08-24T10:40:34.754Z,0.90
2022-08-24T10:43:35.611Z,0.98
2022-08-24T10:46:03.683Z,1.58
2022-08-24T10:48:33.292Z,1.90
2022-08-24T10:51:05.716Z,1.10
2022-08-24T10:53:34.453Z,0.88
2022-08-24T10:56:08.720Z,1.75
2022-08-24T10:58:46.363Z,1.35
2022-08-24T11:01:20.037Z,1.50
2022-08-24T11:03:53.428Z,1.55
2022-08-24T11:06:22.878Z,1.10
2022-08-24T11:08:54.061Z,1.20
2022-08-24T11:11:26.051Z,1.50
2022-08-24T11:13:59.002Z,1.17
2022-08-24T11:18:58.105Z,1.45
2022-08-24T11:21:34.955Z,1.20
2022-08-24T11:24:06.868Z,1.10
2022-08-24T11:26:48.115Z,1.30
2022-08-24T11:29:23.191Z,1.35
2022-08-24T11:31:53.765Z,0.95
2022-08-24T11:34:33.681Z,1.17
2022-08-24T11:37:02.142Z,1.58
2022-08-24T11:39:36.907Z,1.27
2022-08-24T11:42:08.740Z,1.40
2022-08-24T11:44:39.526Z,1.60
2022-08-24T11:47:22.861Z,1.33
2022-08-24T11:50:06.412Z,1.60
2022-08-24T11:52:41.717Z,1.40
2022-08-24T11:55:14.693Z,1.30
2022-08-24T11:57:48.494Z,1.02
2022-08-24T12:00:21.034Z,1.35
2022-08-24T12:02:59.128Z,1.00
2022-08-24T12:05:49.245Z,1.00
2022-08-24T12:08:26.630Z,1.58
2022-08-24T12:11:01.373Z,1.30
2022-08-24T12:13:45.357Z,1.20
2022-08-24T12:16:18.266Z,1.23
2022-08-24T12:19:12.686Z,1.60
2022-08-24T12:21:45.217Z,1.05
2022-08-24T12:24:16.403Z,1.73
2022-08-24T12:26:48.355Z,1.10
2022-08-24T12:29:33.019Z,1.35
2022-08-24T12:32:13.733Z,1.10
2022-08-24T12:34:50.092Z,1.10
2022-08-24T12:37:32.466Z,1.20
2022-08-24T12:40:16.485Z,1.05
2022-08-24T12:42:52.327Z,1.52
2022-08-24T12:45:22.428Z,1.10
2022-08-24T12:48:01.377Z,0.85
2022-08-24T12:50:50.042Z,1.40
2022-08-24T12:53:21.872Z,1.20
2022-08-24T12:56:00.433Z,1.37
2022-08-24T12:58:54.656Z,1.20
2022-08-24T13:01:26.937Z,1.77
2022-08-24T13:04:09.292Z,1.33
2022-08-24T13:06:43.691Z,1.02
2022-08-24T13:09:18.101Z,1.35
2022-08-24T13:11:47.577Z,1.30
2022-08-24T13:14:24.163Z,1.50
2022-08-24T13:16:58.589Z,1.27
2022-08-24T13:19:46.098Z,1.30
2022-08-24T13:22:14.286Z,1.20
2022-08-24T13:24:46.363Z,1.30
2022-08-24T13:27:15.780Z,1.08
2022-08-24T13:29:45.736Z,1.40
2022-08-24T13:32:19.591Z,1.30
2022-08-24T13:34:51.587Z,1.27
2022-08-24T13:37:22.737Z,1.17
2022-08-24T13:39:56.657Z,1.10
2022-08-24T13:42:52.010Z,1.27
2022-08-24T13:45:32.553Z,0.98
2022-08-24T13:48:05.186Z,1.20
2022-08-24T13:50:43.456Z,1.45
2022-08-24T13:53:30.981Z,1.00
2022-08-24T13:56:18.089Z,1.15
2022-08-24T13:58:50.838Z,1.05
2022-08-24T14:01:25.525Z,1.65
2022-08-24T14:04:12.477Z,1.15
2022-08-24T14:06:59.860Z,1.58
2022-08-24T14:09:46.598Z,1.33
2022-08-24T14:12:18.023Z,1.20
2022-08-24T14:14:51.299Z,1.30
2022-08-24T14:17:40.217Z,1.35
2022-08-24T14:20:13.364Z,1.45
2022-08-24T14:22:56.896Z,1.45
2022-08-24T14:25:27.136Z,1.70
2022-08-24T14:27:55.683Z,1.65
2022-08-24T14:30:25.825Z,1.30
2022-08-24T14:33:03.424Z,1.52
2022-08-24T14:35:45.117Z,1.25
2022-08-24T14:40:55.863Z,1.42
2022-08-24T14:43:35.091Z,1.08
2022-08-24T14:46:12.350Z,1.25
2022-08-24T14:49:16.300Z,1.73
2022-08-24T14:52:03.427Z,1.13
2022-08-24T14:54:42.941Z,1.73
2022-08-24T14:57:30.524Z,1.20
2022-08-24T15:00:02.432Z,1.17
2022-08-24T15:02:44.115Z,1.20
2022-08-24T15:05:21.679Z,1.25
2022-08-24T15:07:56.010Z,1.20
2022-08-24T15:10:26.574Z,1.20
2022-08-24T15:13:03.374Z,1.38
2022-08-24T15:15:39.502Z,1.45
2022-08-24T15:18:11.585Z,1.25
2022-08-24T15:20:39.953Z,1.08
2022-08-24T15:23:16.664Z,1.38
2022-08-24T15:26:04.803Z,1.52
2022-08-24T15:28:36.591Z,1.10
2022-08-24T15:31:10.075Z,2.03
2022-08-24T15:33:57.758Z,1.52
2022-08-24T15:36:30.106Z,1.17
2022-08-24T15:38:58.899Z,1.20
2022-08-24T15:41:43.590Z,1.55
2022-08-24T15:44:21.349Z,1.17
2022-08-24T15:47:21.664Z,1.45
2022-08-24T15:49:50.330Z,1.40
2022-08-24T15:52:31.862Z,1.15
2022-08-24T15:55:03.043Z,1.30
2022-08-24T15:57:41.556Z,1.50
2022-08-24T16:00:40.435Z,1.20
2022-08-24T16:03:28.561Z,1.00
2022-08-24T16:06:16.933Z,1.42
2022-08-24T16:08:56.138Z,1.10
2022-08-24T16:11:35.629Z,1.08
2022-08-24T16:14:04.034Z,1.30
2022-08-24T16:16:40.285Z,1.10
2022-08-24T16:19:18.465Z,1.38
2022-08-24T16:22:13.223Z,1.40
2022-08-24T16:24:43.926Z,1.08
2022-08-24T16:27:15.529Z,1.27
2022-08-24T16:29:45.564Z,1.27
2022-08-24T16:32:22.343Z,1.20
2022-08-24T16:35:04.458Z,1.85
2022-08-24T16:37:35.048Z,1.38
2022-08-24T16:40:03.768Z,1.48
2022-08-24T16:42:38.349Z,1.63
2022-08-24T16:45:09.593Z,1.25
2022-08-24T16:47:45.641Z,1.30
2022-08-24T16:50:15.848Z,1.17
2022-08-24T16:52:46.891Z,1.10
2022-08-24T16:55:16.088Z,1.30
2022-08-24T16:57:45.185Z,1.02
2022-08-24T17:00:17.149Z,1.20
2022-08-24T17:03:04.848Z,2.03
2022-08-24T17:05:37.434Z,1.50
2022-08-24T17:08:08.667Z,1.27
2022-08-24T17:10:38.450Z,1.45
2022-08-24T17:13:08.493Z,1.58
2022-08-24T17:15:37.444Z,1.95
2022-08-24T17:18:08.987Z,1.42
2022-08-24T17:20:39.239Z,1.88
2022-08-24T17:23:08.889Z,1.55
2022-08-24T17:25:40.102Z,1.73
2022-08-24T17:28:11.230Z,1.55
2022-08-24T17:30:48.599Z,1.60
2022-08-24T17:33:24.081Z,1.80
2022-08-24T17:35:55.406Z,1.67
2022-08-24T17:38:23.838Z,2.38
2022-08-24T17:40:53.664Z,1.52
2022-08-24T17:43:23.086Z,1.80
2022-08-24T17:45:54.959Z,1.75
2022-08-24T17:48:26.423Z,1.60
2022-08-24T17:50:56.106Z,1.95
2022-08-24T17:53:25.984Z,1.92
2022-08-24T17:55:55.358Z,1.50
2022-08-24T17:58:24.877Z,1.40
2022-08-24T18:00:54.920Z,1.50
2022-08-24T18:03:23.833Z,1.83
2022-08-24T18:05:53.597Z,1.50
2022-08-24T18:08:22.094Z,1.35
2022-08-24T18:10:51.276Z,1.63
2022-08-24T18:13:19.838Z,1.48
2022-08-24T18:15:48.830Z,1.80
2022-08-24T18:18:17.436Z,1.92
2022-08-24T18:20:50.920Z,1.90
2022-08-24T18:23:24.733Z,1.55
2022-08-24T18:25:54.664Z,4.55
2022-08-24T18:28:24.075Z,2.83
2022-08-24T18:30:55.910Z,2.13
2022-08-24T18:33:26.337Z,1.75
2022-08-24T18:35:57.117Z,2.10
2022-08-24T18:38:30.193Z,1.77
2022-08-24T18:41:02.283Z,1.67
2022-08-24T18:43:34.284Z,2.20
2022-08-24T18:46:04.777Z,1.70
2022-08-24T18:48:35.149Z,1.40
2022-08-24T18:51:03.778Z,1.88
2022-08-24T18:53:35.507Z,2.00
2022-08-24T18:56:11.782Z,1.73
2022-08-24T18:58:41.651Z,2.38
2022-08-24T19:01:22.664Z,2.08
2022-08-24T19:03:56.474Z,1.67
2022-08-24T19:06:26.395Z,1.63
2022-08-24T19:08:56.259Z,2.20
2022-08-24T19:11:24.993Z,2.38
2022-08-24T19:13:54.776Z,2.22
2022-08-24T19:16:29.822Z,2.17
2022-08-24T19:19:12.041Z,2.05
2022-08-24T19:21:42.199Z,1.90
2022-08-24T19:24:13.038Z,2.30
2022-08-24T19:26:45.058Z,1.60
2022-08-24T19:29:28.643Z,2.00
2022-08-24T19:32:21.804Z,2.10
2022-08-24T19:34:53.245Z,1.85
2022-08-24T19:37:26.435Z,1.52
2022-08-24T19:39:57.909Z,1.80
2022-08-24T19:42:27.556Z,1.45
2022-08-24T19:45:13.541Z,1.73
2022-08-24T19:47:44.069Z,1.75
2022-08-24T19:50:14.344Z,2.03
2022-08-24T19:52:51.109Z,1.67
2022-08-24T19:55:21.142Z,1.63
2022-08-24T19:57:51.263Z,1.67
2022-08-24T20:00:19.797Z,1.98
2022-08-24T20:02:56.613Z,1.52
2022-08-24T20:05:28.297Z,1.60
2022-08-24T20:07:57.594Z,1.70
2022-08-24T20:10:29.515Z,1.92
2022-08-24T20:12:58.729Z,1.38
2022-08-24T20:15:27.904Z,1.55
2022-08-24T20:18:00.166Z,1.75
2022-08-24T20:20:32.839Z,1.67
2022-08-24T20:23:06.014Z,1.75
2022-08-24T20:25:35.629Z,1.65
2022-08-24T20:28:28.219Z,1.55
2022-08-24T20:30:55.326Z,2.00
2022-08-24T20:33:27.987Z,1.60
2022-08-24T20:35:56.779Z,1.40
2022-08-24T20:38:25.592Z,1.60
2022-08-24T20:41:06.139Z,1.45
2022-08-24T20:43:35.754Z,1.92
2022-08-24T20:46:06.949Z,1.83
2022-08-24T20:48:42.872Z,2.80
2022-08-24T20:51:14.189Z,1.80
2022-08-24T20:53:44.012Z,2.00
2022-08-24T20:56:20.815Z,1.83
2022-08-24T20:58:59.881Z,1.80
2022-08-24T21:01:32.756Z,1.83
2022-08-24T21:04:05.063Z,2.15
2022-08-24T21:06:34.846Z,1.98
2022-08-24T21:09:05.389Z,1.60
2022-08-24T21:11:36.040Z,2.20
2022-08-24T21:14:08.122Z,1.70
2022-08-24T21:16:39.994Z,1.98
2022-08-24T21:19:10.793Z,1.33
2022-08-24T21:21:42.547Z,1.58
2022-08-24T21:24:16.000Z,1.45
2022-08-24T21:26:49.103Z,1.80
2022-08-24T21:29:17.974Z,1.75
2022-08-24T21:32:06.896Z,1.80
2022-08-24T21:34:40.287Z,1.95
2022-08-24T21:37:11.197Z,1.73
2022-08-24T21:39:39.988Z,1.75
2022-08-24T21:42:09.440Z,1.92
2022-08-24T21:44:37.949Z,1.50
2022-08-24T21:47:08.661Z,1.80
2022-08-24T21:49:37.206Z,1.65
2022-08-24T21:52:07.599Z,1.88
2022-08-24T21:54:37.774Z,1.50
2022-08-24T21:57:07.725Z,1.83
2022-08-24T21:59:39.050Z,2.22
2022-08-24T22:02:08.344Z,1.80
2022-08-24T22:04:40.599Z,1.95
2022-08-24T22:07:09.033Z,1.85
2022-08-24T22:09:40.802Z,1.67
2022-08-24T22:12:10.205Z,1.50
2022-08-24T22:14:39.889Z,1.63
2022-08-24T22:17:10.008Z,1.75
2022-08-24T22:19:40.415Z,1.95
2022-08-24T22:22:08.635Z,1.50
2022-08-24T22:24:37.645Z,1.95
2022-08-24T22:27:09.255Z,1.25
2022-08-24T22:29:38.508Z,1.40
2022-08-24T22:32:07.522Z,1.42
2022-08-24T22:34:37.879Z,1.20
2022-08-24T22:37:06.991Z,1.42
2022-08-24T22:39:36.514Z,1.38
2022-08-24T22:42:05.918Z,1.85
2022-08-24T22:44:36.321Z,1.30
2022-08-24T22:47:11.931Z,1.30
2022-08-24T22:49:44.443Z,1.10
2022-08-24T22:52:14.549Z,1.50
2022-08-24T22:54:42.817Z,1.42
2022-08-24T22:57:13.692Z,1.10
2022-08-24T22:59:48.345Z,1.58
2022-08-24T23:02:19.724Z,1.23
2022-08-24T23:04:50.096Z,1.42
2022-08-24T23:07:20.317Z,1.40
2022-08-24T23:09:50.155Z,1.13
2022-08-24T23:12:24.659Z,1.40
2022-08-24T23:14:55.986Z,1.25
2022-08-24T23:17:25.357Z,1.42
2022-08-24T23:20:05.370Z,1.17
2022-08-24T23:22:40.363Z,1.10
2022-08-24T23:25:13.873Z,1.33
2022-08-24T23:27:53.315Z,1.65
2022-08-24T23:30:26.321Z,1.50
2022-08-24T23:33:06.894Z,1.60
2022-08-24T23:35:40.061Z,1.77
2022-08-24T23:38:09.322Z,1.60
2022-08-24T23:40:44.781Z,1.50
2022-08-24T23:43:14.687Z,1.20
2022-08-24T23:45:44.574Z,1.13
2022-08-24T23:48:13.337Z,1.20
2022-08-24T23:50:46.330Z,1.50
2022-08-24T23:53:15.398Z,1.30
2022-08-24T23:55:45.705Z,1.33
2022-08-24T23:58:15.434Z,1.52
